Laurel Springs, NC

1:35 PM EDT on October 30, 2014 (GMT -0400)
Air Bellows Gap | Change Station
CLOSE
Current Station
Personal Weather Station
Location: Whitehead, NC
Elevation: 3228 ft
Nearby Weather Stations

Elev 3228 ft 36.44 °N, 81.15 °W | Updated 3 minutes ago

Clear
Clear
°F
Feels Like °F
N
-
Wind Variable Wind from North

Today
High -- | Low -- °F
--% Chance of Precip.
Yesterday
High -- | Low -- °F
Precip. -- in
7:45 AM 6:30 PM
Waxing Crescent, 46% visible
Pressure 30.04 in
Visibility 10.0 miles
Clouds Clear
Dew Point Not available.
Humidity Not available.
Rainfall 0.00 in
Snow Depth Not available.
UV 5 out of 12
Pollen .20 out of 12
Air Quality Not available.
Flu Activity Not available.
METAR KGEV 301715Z AUTO 26006KT 10SM CLR 12/M03 A3004 RMK AO2 T01241034

More Conditions Fewer Conditions

Pressure 30.04 in
Visibility 10.0 miles
Clouds Clear
Dew Point Not available.
Humidity Not available.
Rainfall 0.00 in
Snow Depth Not available.
UV 5 out of 12
Pollen .20 out of 12
Air Quality Not available.
Flu Activity Not available.
METAR KGEV 301715Z AUTO 26006KT 10SM CLR 12/M03 A3004 RMK AO2 T01241034

More Conditions Fewer Conditions

10-Day Weather Forecast

Almanac

Astronomy

Oct. 30, 2014 Rise Set
Actual Time
Civil Twilight
Nautical Twilight
Astronomical Twilight
Moon
Length of Visible Light
Length of Day
Tomorrow will be .
, % of the Moon is Illuminated

Today's Extremes

State Highs State Lows

Community

WunderPhotos

Upload Photos

1,766,409 photos uploaded!

WunderBlogs® & News

Nearby

Air Quality

  Air Quality AQ Index Pollutant
Not available.

Snow Depth

Station Depth Elevation

Earthquake Activity

City Distance Mag. Time & Date
Minimum magnitude displayed is 2.5.

Coastal Water Temperatures

Place Temperature

Nearby Weather Stations